createdAt,value
2023-01-28T00:01:51.069Z,46.00
2023-01-28T00:04:48.292Z,46.20
2023-01-28T00:07:42.615Z,45.50
2023-01-28T00:10:38.088Z,46.00
2023-01-28T00:13:33.796Z,45.80
2023-01-28T00:16:29.182Z,46.70
2023-01-28T00:19:23.645Z,45.80
2023-01-28T00:22:18.142Z,46.00
2023-01-28T00:25:12.754Z,46.00
2023-01-28T00:28:07.238Z,46.50
2023-01-28T00:31:07.756Z,46.40
2023-01-28T00:34:04.882Z,46.40
2023-01-28T00:37:02.201Z,46.70
2023-01-28T00:39:56.408Z,46.30
2023-01-28T00:42:55.395Z,46.80
2023-01-28T00:45:50.436Z,46.60
2023-01-28T00:48:48.852Z,46.50
2023-01-28T00:51:43.135Z,45.70
2023-01-28T00:54:37.799Z,46.30
2023-01-28T00:57:32.075Z,46.50
2023-01-28T01:00:27.087Z,46.90
2023-01-28T01:03:22.071Z,46.70
2023-01-28T01:06:18.208Z,46.90
2023-01-28T01:09:14.366Z,47.60
2023-01-28T01:12:09.637Z,47.60
2023-01-28T01:15:04.519Z,48.40
2023-01-28T01:18:00.012Z,48.40
2023-01-28T01:21:00.025Z,48.40
2023-01-28T01:24:04.055Z,48.90
2023-01-28T01:26:58.314Z,48.60
2023-01-28T01:29:52.672Z,48.50
2023-01-28T01:32:46.894Z,48.80
2023-01-28T01:35:41.339Z,49.10
2023-01-28T01:38:36.730Z,49.60
2023-01-28T01:41:33.947Z,49.90
2023-01-28T01:44:49.659Z,49.90
2023-01-28T01:48:03.512Z,49.90
2023-01-28T01:51:09.291Z,49.30
2023-01-28T01:54:04.603Z,49.30
2023-01-28T01:57:02.279Z,49.70
2023-01-28T01:59:57.312Z,49.30
2023-01-28T02:02:53.110Z,50.10
2023-01-28T02:05:49.970Z,49.60
2023-01-28T02:08:45.759Z,49.60
2023-01-28T02:11:40.038Z,50.30
2023-01-28T02:14:38.746Z,50.70
2023-01-28T02:17:33.437Z,50.90
2023-01-28T02:20:49.169Z,50.70
2023-01-28T02:23:52.894Z,50.90
2023-01-28T02:27:11.819Z,50.90
2023-01-28T02:30:30.840Z,51.00
2023-01-28T02:34:00.616Z,52.20
2023-01-28T02:37:03.254Z,51.90
2023-01-28T02:40:07.745Z,52.50
2023-01-28T02:43:02.189Z,53.40
2023-01-28T02:46:14.803Z,54.40
2023-01-28T02:49:31.669Z,55.20
2023-01-28T02:52:54.374Z,55.80
2023-01-28T02:56:07.104Z,55.90
2023-01-28T02:59:28.257Z,56.10
2023-01-28T03:02:52.150Z,56.20
2023-01-28T03:06:10.203Z,56.80
2023-01-28T03:09:24.916Z,58.10
2023-01-28T03:12:42.255Z,59.70
2023-01-28T03:16:06.457Z,61.20
2023-01-28T03:19:19.001Z,62.20
2023-01-28T03:22:32.184Z,64.40
2023-01-28T03:25:47.324Z,66.90
2023-01-28T03:29:01.583Z,68.00
2023-01-28T03:32:15.754Z,69.70
2023-01-28T03:35:30.311Z,68.20
2023-01-28T03:38:24.644Z,68.40
2023-01-28T03:41:28.434Z,69.40
2023-01-28T03:44:41.086Z,69.20
2023-01-28T03:47:35.468Z,70.30
2023-01-28T03:50:29.682Z,69.40
2023-01-28T03:53:24.635Z,67.10
2023-01-28T03:56:19.780Z,66.60
2023-01-28T03:59:14.228Z,67.60
2023-01-28T04:02:08.560Z,67.80
2023-01-28T04:05:08.286Z,67.10
2023-01-28T04:08:02.480Z,65.90
2023-01-28T04:10:56.832Z,65.50
2023-01-28T04:13:51.706Z,64.40
2023-01-28T04:16:46.586Z,62.80
2023-01-28T04:19:43.658Z,62.20
2023-01-28T04:22:40.123Z,62.40
2023-01-28T04:25:35.023Z,61.20
2023-01-28T04:28:29.433Z,60.70
2023-01-28T04:31:25.015Z,59.60
2023-01-28T04:34:21.119Z,58.80
2023-01-28T04:37:15.407Z,57.90
2023-01-28T04:40:10.440Z,57.90
2023-01-28T04:43:04.870Z,57.40
2023-01-28T04:45:59.191Z,56.90
2023-01-28T04:48:53.470Z,56.60
2023-01-28T04:51:47.736Z,56.20
2023-01-28T04:54:42.006Z,55.40
2023-01-28T04:57:36.312Z,55.70
2023-01-28T05:00:30.687Z,55.00
2023-01-28T05:03:25.747Z,54.50
2023-01-28T05:06:20.016Z,54.60
2023-01-28T05:09:14.427Z,55.00
2023-01-28T05:12:08.836Z,55.20
2023-01-28T05:15:03.635Z,55.30
2023-01-28T05:17:58.434Z,55.20
2023-01-28T05:20:52.895Z,55.00
2023-01-28T05:23:47.129Z,54.80
2023-01-28T05:26:41.520Z,54.50
2023-01-28T05:29:35.859Z,54.20
2023-01-28T05:32:30.313Z,54.30
2023-01-28T05:35:25.281Z,55.40
2023-01-28T05:38:19.762Z,55.40
2023-01-28T05:41:14.074Z,55.80
2023-01-28T05:44:08.589Z,55.90
2023-01-28T05:47:02.903Z,56.20
2023-01-28T05:49:57.304Z,56.60
2023-01-28T05:52:51.583Z,56.30
2023-01-28T05:55:52.234Z,56.40
2023-01-28T05:58:46.584Z,56.90
2023-01-28T06:01:41.188Z,57.00
2023-01-28T06:04:35.509Z,57.30
2023-01-28T06:07:29.944Z,58.00
2023-01-28T06:10:24.238Z,58.30
2023-01-28T06:13:18.585Z,58.50
2023-01-28T06:16:13.154Z,57.50
2023-01-28T06:19:07.533Z,57.20
2023-01-28T06:22:01.810Z,57.60
2023-01-28T06:24:58.583Z,57.90
2023-01-28T06:27:54.959Z,58.20
2023-01-28T06:30:53.596Z,58.00
2023-01-28T06:33:48.096Z,58.40
2023-01-28T06:36:42.442Z,58.10
2023-01-28T06:39:36.717Z,58.10
2023-01-28T06:42:31.294Z,58.40
2023-01-28T06:45:27.203Z,58.60
2023-01-28T06:48:21.929Z,59.40
2023-01-28T06:51:17.058Z,59.70
2023-01-28T06:54:11.278Z,61.30
2023-01-28T06:57:05.547Z,61.70
2023-01-28T06:59:59.998Z,61.80
2023-01-28T07:02:58.541Z,61.90
2023-01-28T07:05:52.987Z,61.70
2023-01-28T07:08:47.359Z,61.20
2023-01-28T07:11:41.651Z,60.60
2023-01-28T07:14:35.949Z,60.80
2023-01-28T07:17:32.909Z,61.20
2023-01-28T07:20:27.192Z,61.30
2023-01-28T07:23:21.649Z,62.00
2023-01-28T07:26:16.826Z,61.80
2023-01-28T07:29:14.426Z,63.00
2023-01-28T07:32:08.882Z,63.80
2023-01-28T07:35:03.186Z,65.10
2023-01-28T07:37:59.768Z,66.10
2023-01-28T07:40:56.173Z,67.20
2023-01-28T07:43:50.447Z,68.90
2023-01-28T07:46:44.884Z,70.00
2023-01-28T07:49:41.010Z,70.70
2023-01-28T07:52:45.629Z,71.20
2023-01-28T07:55:40.489Z,71.60
2023-01-28T07:58:37.765Z,72.60
2023-01-28T08:01:32.248Z,73.10
2023-01-28T08:04:26.632Z,74.00
2023-01-28T08:07:21.030Z,74.40
2023-01-28T08:10:16.108Z,74.50
2023-01-28T08:13:12.625Z,74.80
2023-01-28T08:16:07.493Z,75.20
2023-01-28T08:19:01.711Z,75.70
2023-01-28T08:21:56.017Z,76.40
2023-01-28T08:24:50.251Z,77.60
2023-01-28T08:27:44.627Z,78.90
2023-01-28T08:30:40.174Z,79.70
2023-01-28T08:33:34.633Z,80.40
2023-01-28T08:36:28.821Z,80.60
2023-01-28T08:39:23.144Z,81.20
2023-01-28T08:42:17.398Z,81.50
2023-01-28T08:45:12.363Z,81.60
2023-01-28T08:48:08.155Z,83.30
2023-01-28T08:51:02.677Z,83.80
2023-01-28T08:53:56.979Z,83.10
2023-01-28T08:56:55.141Z,84.80
2023-01-28T08:59:49.376Z,86.00
2023-01-28T09:02:43.675Z,86.40
2023-01-28T09:05:39.057Z,90.00
2023-01-28T09:08:33.868Z,91.10
2023-01-28T09:11:29.161Z,91.50
2023-01-28T09:14:23.477Z,91.60
2023-01-28T09:17:17.745Z,91.40
2023-01-28T09:20:13.937Z,91.10
2023-01-28T09:23:09.067Z,91.10
2023-01-28T09:26:04.401Z,90.90
2023-01-28T09:28:58.616Z,90.80
2023-01-28T09:31:53.175Z,90.60
2023-01-28T09:34:47.568Z,90.80
2023-01-28T09:37:41.879Z,90.90
2023-01-28T09:40:43.462Z,90.70
2023-01-28T09:44:05.543Z,90.80
2023-01-28T09:47:11.198Z,90.70
2023-01-28T09:50:27.505Z,90.70
2023-01-28T09:53:25.517Z,91.20
2023-01-28T09:56:44.597Z,91.00
2023-01-28T09:59:39.578Z,91.30
2023-01-28T10:02:36.854Z,91.70
2023-01-28T10:05:30.577Z,91.50
2023-01-28T10:09:00.325Z,91.70
2023-01-28T10:12:21.917Z,92.20
2023-01-28T10:15:28.538Z,92.10
2023-01-28T10:18:35.022Z,92.50
2023-01-28T10:21:49.412Z,92.60
2023-01-28T10:24:57.153Z,92.60
2023-01-28T10:27:54.383Z,93.10
2023-01-28T10:30:50.450Z,93.30
2023-01-28T10:33:44.879Z,93.50
2023-01-28T10:36:39.116Z,93.50
2023-01-28T10:39:33.516Z,93.90
2023-01-28T10:42:37.034Z,94.00
2023-01-28T10:45:57.634Z,94.20
2023-01-28T10:49:12.100Z,94.50
2023-01-28T10:52:16.878Z,94.40
2023-01-28T10:55:17.103Z,95.20
2023-01-28T10:58:25.243Z,95.40
2023-01-28T11:01:19.797Z,95.50
2023-01-28T11:04:28.423Z,96.10
2023-01-28T11:07:23.940Z,96.70
2023-01-28T11:10:28.488Z,97.10
2023-01-28T11:13:27.012Z,97.40
2023-01-28T11:16:22.311Z,97.40
2023-01-28T11:19:17.300Z,97.80
2023-01-28T11:22:31.763Z,97.90
2023-01-28T11:25:44.199Z,98.20
2023-01-28T11:28:43.579Z,98.30
2023-01-28T11:31:44.701Z,98.50
2023-01-28T11:34:49.753Z,98.80
2023-01-28T11:37:50.780Z,99.00
2023-01-28T11:40:55.796Z,98.90
2023-01-28T11:43:53.971Z,99.80
2023-01-28T11:47:20.374Z,99.90
2023-01-28T11:50:25.626Z,99.90
2023-01-28T11:53:48.430Z,99.90
2023-01-28T11:57:07.064Z,99.90
2023-01-28T12:00:38.400Z,99.90
2023-01-28T12:04:00.426Z,99.90
2023-01-28T12:07:15.890Z,99.90
2023-01-28T12:10:53.775Z,99.90
2023-01-28T12:14:06.416Z,99.90
2023-01-28T12:17:08.927Z,99.90
2023-01-28T12:20:27.259Z,99.90
2023-01-28T12:23:47.343Z,99.90
2023-01-28T12:27:01.549Z,99.90
2023-01-28T12:30:07.852Z,99.90
2023-01-28T12:33:26.647Z,99.90
2023-01-28T12:36:20.793Z,99.90
2023-01-28T12:39:18.008Z,99.90
2023-01-28T12:42:16.802Z,99.90
2023-01-28T12:45:22.256Z,99.90
2023-01-28T12:48:42.745Z,99.90
2023-01-28T12:52:09.507Z,99.90
2023-01-28T12:55:19.104Z,99.90
2023-01-28T12:58:30.023Z,99.90
2023-01-28T13:01:36.393Z,99.90
2023-01-28T13:05:06.639Z,99.90
2023-01-28T13:08:26.579Z,99.90
2023-01-28T13:11:21.521Z,99.90
2023-01-28T13:14:19.842Z,99.90
2023-01-28T13:17:26.884Z,99.90
2023-01-28T13:20:37.553Z,99.90
2023-01-28T13:23:46.992Z,99.90
2023-01-28T13:26:45.813Z,99.90
2023-01-28T13:29:40.077Z,99.90
2023-01-28T13:32:37.283Z,99.90
2023-01-28T13:35:42.153Z,99.90
2023-01-28T13:38:39.509Z,99.90
2023-01-28T13:42:18.163Z,99.90
2023-01-28T13:45:18.591Z,99.90
2023-01-28T13:48:35.697Z,99.90
2023-01-28T13:51:37.107Z,99.90
2023-01-28T13:54:33.378Z,99.90
2023-01-28T13:57:46.125Z,99.90
2023-01-28T14:01:04.686Z,99.90
2023-01-28T14:04:20.401Z,99.90
2023-01-28T14:07:39.021Z,99.90
2023-01-28T14:10:43.170Z,99.90
2023-01-28T14:13:37.521Z,99.90
2023-01-28T14:16:56.829Z,99.90
2023-01-28T14:19:52.635Z,99.90
2023-01-28T14:22:47.274Z,99.90
2023-01-28T14:26:07.219Z,99.90
2023-01-28T14:29:10.359Z,99.90
2023-01-28T14:32:30.882Z,99.90
2023-01-28T14:35:35.175Z,99.90
2023-01-28T14:38:30.485Z,99.90
2023-01-28T14:41:31.416Z,99.90
2023-01-28T14:44:43.238Z,99.90
2023-01-28T14:47:57.041Z,99.90
2023-01-28T14:51:14.207Z,99.90
2023-01-28T14:54:17.570Z,99.90
2023-01-28T14:57:40.276Z,99.90
2023-01-28T15:00:38.690Z,99.90
2023-01-28T15:03:33.973Z,99.90
2023-01-28T15:06:41.076Z,99.90
2023-01-28T15:09:35.344Z,99.90
2023-01-28T15:12:30.251Z,99.90
2023-01-28T15:15:26.769Z,99.90
2023-01-28T15:18:38.090Z,99.90
2023-01-28T15:21:32.869Z,99.90
2023-01-28T15:24:27.593Z,99.90
2023-01-28T15:27:34.230Z,99.90
2023-01-28T15:30:33.690Z,99.90
2023-01-28T15:33:28.470Z,99.90
2023-01-28T15:36:22.829Z,99.90
2023-01-28T15:39:23.066Z,99.90
2023-01-28T15:42:30.566Z,99.90
2023-01-28T15:45:29.429Z,99.90
2023-01-28T15:48:26.544Z,99.90
2023-01-28T15:51:26.431Z,99.90
2023-01-28T15:54:24.916Z,99.90
2023-01-28T15:57:23.199Z,99.90
2023-01-28T16:00:21.919Z,99.90
2023-01-28T16:03:24.817Z,99.90
2023-01-28T16:06:23.795Z,99.90
2023-01-28T16:09:35.178Z,99.90
2023-01-28T16:12:29.972Z,99.90
2023-01-28T16:15:24.561Z,99.90
2023-01-28T16:18:28.475Z,99.90
2023-01-28T16:21:29.645Z,99.90
2023-01-28T16:24:33.545Z,99.90
2023-01-28T16:27:35.909Z,99.90
2023-01-28T16:30:30.795Z,99.90
2023-01-28T16:33:25.129Z,99.90
2023-01-28T16:36:23.008Z,99.90
2023-01-28T16:39:19.496Z,99.90
2023-01-28T16:42:13.660Z,99.90
2023-01-28T16:45:12.232Z,99.90
2023-01-28T16:48:06.692Z,99.90
2023-01-28T16:51:01.000Z,99.90
2023-01-28T16:53:56.157Z,99.90
2023-01-28T16:56:51.318Z,99.90
2023-01-28T16:59:45.699Z,99.90
2023-01-28T17:02:40.069Z,99.90
2023-01-28T17:05:34.732Z,99.90
2023-01-28T17:08:31.924Z,99.90
2023-01-28T17:11:25.673Z,99.90
2023-01-28T17:14:24.217Z,99.90
2023-01-28T17:17:18.453Z,99.90
2023-01-28T17:20:13.431Z,99.90
2023-01-28T17:23:10.212Z,99.90
2023-01-28T17:26:11.616Z,99.90
2023-01-28T17:29:07.931Z,99.90
2023-01-28T17:32:02.485Z,99.90
2023-01-28T17:34:56.852Z,99.90
2023-01-28T17:37:54.506Z,99.90
2023-01-28T17:40:49.169Z,99.90
2023-01-28T17:43:46.516Z,99.90
2023-01-28T17:46:40.785Z,99.90
2023-01-28T17:49:35.137Z,99.90
2023-01-28T17:52:29.445Z,99.90
2023-01-28T17:55:24.967Z,99.90
2023-01-28T17:58:21.137Z,99.90
2023-01-28T18:01:15.436Z,99.90
2023-01-28T18:04:13.805Z,99.90
2023-01-28T18:07:12.246Z,99.90
2023-01-28T18:10:06.779Z,99.90
2023-01-28T18:13:01.105Z,99.90
2023-01-28T18:15:57.884Z,99.90
2023-01-28T18:18:52.699Z,99.90
2023-01-28T18:21:53.152Z,99.90
2023-01-28T18:24:47.873Z,99.90
2023-01-28T18:27:42.529Z,99.90
2023-01-28T18:30:36.960Z,99.90
2023-01-28T18:33:31.211Z,99.90
2023-01-28T18:36:25.883Z,99.90
2023-01-28T18:39:21.757Z,99.90
2023-01-28T18:42:16.296Z,99.90
2023-01-28T18:45:10.895Z,99.90
2023-01-28T18:48:05.182Z,99.90
2023-01-28T18:50:59.676Z,99.90
2023-01-28T18:53:55.004Z,99.90
2023-01-28T18:56:51.114Z,99.90
2023-01-28T18:59:45.471Z,99.90
2023-01-28T19:02:39.710Z,99.90
2023-01-28T19:05:38.799Z,99.90
2023-01-28T19:08:33.127Z,99.90
2023-01-28T19:11:29.852Z,99.90
2023-01-28T19:14:24.034Z,99.90
2023-01-28T19:17:18.280Z,99.90
2023-01-28T19:20:13.191Z,99.90
2023-01-28T19:23:08.927Z,99.90
2023-01-28T19:26:07.292Z,99.90
2023-01-28T19:29:01.916Z,99.90
2023-01-28T19:31:56.658Z,99.90
2023-01-28T19:34:56.044Z,99.90
2023-01-28T19:37:50.240Z,99.90
2023-01-28T19:40:44.719Z,99.90
2023-01-28T19:43:39.378Z,99.90
2023-01-28T19:46:34.275Z,99.90
2023-01-28T19:49:28.576Z,99.90
2023-01-28T19:52:25.879Z,99.90
2023-01-28T19:55:19.684Z,99.90
2023-01-28T19:58:14.223Z,99.90
2023-01-28T20:01:20.816Z,99.90
2023-01-28T20:04:15.431Z,99.90
2023-01-28T20:07:09.711Z,99.90
2023-01-28T20:10:03.976Z,99.90
2023-01-28T20:12:58.259Z,99.90
2023-01-28T20:15:52.683Z,99.90
2023-01-28T20:18:55.007Z,99.90
2023-01-28T20:21:52.481Z,99.90
2023-01-28T20:24:46.791Z,99.90
2023-01-28T20:27:41.129Z,99.90
2023-01-28T20:30:36.095Z,99.90
2023-01-28T20:33:30.433Z,99.90
2023-01-28T20:36:24.677Z,99.90
2023-01-28T20:39:19.239Z,99.90
2023-01-28T20:42:14.619Z,99.90
2023-01-28T20:45:11.937Z,99.90
2023-01-28T20:48:06.419Z,99.90
2023-01-28T20:51:07.958Z,99.90
2023-01-28T20:54:02.614Z,99.90
2023-01-28T20:56:58.642Z,99.90
2023-01-28T20:59:52.903Z,99.90
2023-01-28T21:02:47.332Z,99.90
2023-01-28T21:05:41.551Z,99.90
2023-01-28T21:08:35.935Z,99.90
2023-01-28T21:11:30.360Z,99.90
2023-01-28T21:14:24.769Z,99.90
2023-01-28T21:17:19.053Z,99.90
2023-01-28T21:20:14.281Z,99.90
2023-01-28T21:23:08.792Z,99.90
2023-01-28T21:26:05.376Z,99.90
2023-01-28T21:29:02.452Z,99.90
2023-01-28T21:31:56.721Z,99.90
2023-01-28T21:34:50.930Z,99.90
2023-01-28T21:37:48.256Z,99.90
2023-01-28T21:40:42.146Z,99.90
2023-01-28T21:43:36.978Z,99.90
2023-01-28T21:46:33.410Z,99.90
2023-01-28T21:49:27.776Z,99.90
2023-01-28T21:52:23.303Z,99.90
2023-01-28T21:55:18.059Z,99.90
2023-01-28T21:58:30.357Z,99.90
2023-01-28T22:01:25.142Z,99.90
2023-01-28T22:04:19.395Z,99.90
2023-01-28T22:07:18.716Z,99.90
2023-01-28T22:10:16.619Z,99.90
2023-01-28T22:13:11.420Z,99.90
2023-01-28T22:16:06.476Z,99.90
2023-01-28T22:19:00.869Z,99.90
2023-01-28T22:21:55.151Z,99.90
2023-01-28T22:24:49.631Z,99.90
2023-01-28T22:27:43.923Z,99.90
2023-01-28T22:30:38.329Z,99.90
2023-01-28T22:36:39.871Z,99.90
2023-01-28T22:39:34.185Z,99.90
2023-01-28T22:42:28.590Z,99.90
2023-01-28T22:45:22.835Z,99.90
2023-01-28T22:48:17.350Z,99.90
2023-01-28T22:51:20.955Z,99.90
2023-01-28T22:54:16.058Z,99.90
2023-01-28T22:57:12.361Z,99.90
2023-01-28T23:00:13.454Z,99.90
2023-01-28T23:03:08.100Z,99.90
2023-01-28T23:06:04.686Z,99.90
2023-01-28T23:08:58.949Z,99.90
2023-01-28T23:11:53.511Z,99.90
2023-01-28T23:15:05.981Z,99.90
2023-01-28T23:18:20.613Z,99.90
2023-01-28T23:21:43.657Z,99.90
2023-01-28T23:24:37.918Z,99.90
2023-01-28T23:27:32.223Z,99.90
2023-01-28T23:30:28.786Z,99.90
2023-01-28T23:33:23.013Z,99.90
2023-01-28T23:36:17.787Z,99.90
2023-01-28T23:39:12.319Z,99.90
2023-01-28T23:42:22.157Z,99.90
2023-01-28T23:45:23.211Z,99.90
2023-01-28T23:48:17.503Z,99.90
2023-01-28T23:51:11.883Z,99.90
2023-01-28T23:54:06.783Z,99.90
2023-01-28T23:57:03.587Z,99.90
2023-01-28T23:59:58.160Z,99.90
